Terminal Aerodrome Forecast
Issued by NWS

Current Version | Previous Version | Graphics & Text | Print | Product List | Glossary On
Versions: 1 2 3 4 5 6 7 8 9 10 11 12 13 14 15 16 17 18 19 20 21
767
FTUS41 KILN 232320
TAFLUK
TAF
KLUK 232320Z 2400/2424 VRB02KT P6SM SCT250
     FM240500 00000KT 4SM BR SCT250
      TEMPO 2408/2412 1SM BR
     FM241400 22005KT P6SM SCT025 SCT250
     FM241800 25006KT P6SM SCT045=

USA.gov is the U.S. government's official web portal to all federal, state and local government web resources and services.